sensor_id;sensor_type;location;lat;lon;timestamp;temperature;humidity
77496;SHT31;66600;48.378;9.948;2023-03-03T00:00:25;1.34;85.29
77496;SHT31;66600;48.378;9.948;2023-03-03T00:02:50;1.38;85.18
77496;SHT31;66600;48.378;9.948;2023-03-03T00:05:16;1.39;85.35
77496;SHT31;66600;48.378;9.948;2023-03-03T00:07:44;1.35;85.44
77496;SHT31;66600;48.378;9.948;2023-03-03T00:10:11;1.41;85.17
77496;SHT31;66600;48.378;9.948;2023-03-03T00:12:45;1.36;85.35
77496;SHT31;66600;48.378;9.948;2023-03-03T00:15:20;1.43;85.15
77496;SHT31;66600;48.378;9.948;2023-03-03T00:17:45;1.48;84.87
77496;SHT31;66600;48.378;9.948;2023-03-03T00:20:37;1.49;84.40
77496;SHT31;66600;48.378;9.948;2023-03-03T00:23:16;1.42;84.62
77496;SHT31;66600;48.378;9.948;2023-03-03T00:25:44;1.39;84.95
77496;SHT31;66600;48.378;9.948;2023-03-03T00:28:23;1.39;84.97
77496;SHT31;66600;48.378;9.948;2023-03-03T00:30:49;1.48;84.65
77496;SHT31;66600;48.378;9.948;2023-03-03T00:33:27;1.42;84.81
77496;SHT31;66600;48.378;9.948;2023-03-03T00:35:54;1.42;84.97
77496;SHT31;66600;48.378;9.948;2023-03-03T00:38:20;1.45;85.03
77496;SHT31;66600;48.378;9.948;2023-03-03T00:40:46;1.42;84.80
77496;SHT31;66600;48.378;9.948;2023-03-03T00:43:34;1.42;84.95
77496;SHT31;66600;48.378;9.948;2023-03-03T00:45:59;1.48;84.81
77496;SHT31;66600;48.378;9.948;2023-03-03T00:48:27;1.42;85.07
77496;SHT31;66600;48.378;9.948;2023-03-03T00:50:54;1.48;85.05
77496;SHT31;66600;48.378;9.948;2023-03-03T00:53:22;1.52;84.91
77496;SHT31;66600;48.378;9.948;2023-03-03T00:55:49;1.55;84.75
77496;SHT31;66600;48.378;9.948;2023-03-03T00:58:15;1.56;84.68
77496;SHT31;66600;48.378;9.948;2023-03-03T01:00:41;1.49;84.64
77496;SHT31;66600;48.378;9.948;2023-03-03T01:03:19;1.58;84.42
77496;SHT31;66600;48.378;9.948;2023-03-03T01:05:46;1.56;84.64
77496;SHT31;66600;48.378;9.948;2023-03-03T01:08:12;1.58;84.57
77496;SHT31;66600;48.378;9.948;2023-03-03T01:10:41;1.72;84.15
77496;SHT31;66600;48.378;9.948;2023-03-03T01:13:09;1.70;84.14
77496;SHT31;66600;48.378;9.948;2023-03-03T01:15:35;1.70;84.12
77496;SHT31;66600;48.378;9.948;2023-03-03T01:18:02;1.67;84.41
77496;SHT31;66600;48.378;9.948;2023-03-03T01:20:27;1.67;84.25
77496;SHT31;66600;48.378;9.948;2023-03-03T01:22:52;1.69;84.05
77496;SHT31;66600;48.378;9.948;2023-03-03T01:25:18;1.67;84.31
77496;SHT31;66600;48.378;9.948;2023-03-03T01:27:43;1.62;84.46
77496;SHT31;66600;48.378;9.948;2023-03-03T01:30:09;1.60;84.66
77496;SHT31;66600;48.378;9.948;2023-03-03T01:32:34;1.63;84.32
77496;SHT31;66600;48.378;9.948;2023-03-03T01:34:59;1.64;84.17
77496;SHT31;66600;48.378;9.948;2023-03-03T01:37:25;1.63;84.19
77496;SHT31;66600;48.378;9.948;2023-03-03T01:39:51;1.60;84.56
77496;SHT31;66600;48.378;9.948;2023-03-03T01:42:17;1.55;84.75
77496;SHT31;66600;48.378;9.948;2023-03-03T01:44:42;1.56;84.56
77496;SHT31;66600;48.378;9.948;2023-03-03T01:49:48;1.55;84.67
77496;SHT31;66600;48.378;9.948;2023-03-03T01:52:23;1.55;84.72
77496;SHT31;66600;48.378;9.948;2023-03-03T01:54:51;1.59;84.59
77496;SHT31;66600;48.378;9.948;2023-03-03T01:57:20;1.55;84.72
77496;SHT31;66600;48.378;9.948;2023-03-03T01:59:49;1.58;84.71
77496;SHT31;66600;48.378;9.948;2023-03-03T02:02:15;1.59;84.73
77496;SHT31;66600;48.378;9.948;2023-03-03T02:04:41;1.53;84.87
77496;SHT31;66600;48.378;9.948;2023-03-03T02:07:08;1.59;84.84
77496;SHT31;66600;48.378;9.948;2023-03-03T02:09:43;1.63;84.66
77496;SHT31;66600;48.378;9.948;2023-03-03T02:12:12;1.62;84.74
77496;SHT31;66600;48.378;9.948;2023-03-03T02:14:38;1.64;84.61
77496;SHT31;66600;48.378;9.948;2023-03-03T02:17:04;1.69;84.67
77496;SHT31;66600;48.378;9.948;2023-03-03T02:22:22;1.63;84.68
77496;SHT31;66600;48.378;9.948;2023-03-03T02:24:50;1.64;84.53
77496;SHT31;66600;48.378;9.948;2023-03-03T02:27:17;1.64;84.48
77496;SHT31;66600;48.378;9.948;2023-03-03T02:29:42;1.64;84.61
77496;SHT31;66600;48.378;9.948;2023-03-03T02:32:08;1.69;84.37
77496;SHT31;66600;48.378;9.948;2023-03-03T02:34:48;1.62;84.58
77496;SHT31;66600;48.378;9.948;2023-03-03T02:37:14;1.58;84.83
77496;SHT31;66600;48.378;9.948;2023-03-03T02:39:40;1.60;84.81
77496;SHT31;66600;48.378;9.948;2023-03-03T02:42:20;1.59;84.97
77496;SHT31;66600;48.378;9.948;2023-03-03T02:44:47;1.67;84.58
77496;SHT31;66600;48.378;9.948;2023-03-03T02:47:13;1.62;84.54
77496;SHT31;66600;48.378;9.948;2023-03-03T02:49:38;1.59;84.58
77496;SHT31;66600;48.378;9.948;2023-03-03T02:52:06;1.58;84.76
77496;SHT31;66600;48.378;9.948;2023-03-03T02:54:32;1.62;84.68
77496;SHT31;66600;48.378;9.948;2023-03-03T02:56:58;1.56;84.98
77496;SHT31;66600;48.378;9.948;2023-03-03T02:59:24;1.56;85.14
77496;SHT31;66600;48.378;9.948;2023-03-03T03:01:50;1.60;84.94
77496;SHT31;66600;48.378;9.948;2023-03-03T03:04:17;1.56;84.94
77496;SHT31;66600;48.378;9.948;2023-03-03T03:06:43;1.55;85.01
77496;SHT31;66600;48.378;9.948;2023-03-03T03:09:09;1.51;85.33
77496;SHT31;66600;48.378;9.948;2023-03-03T03:11:35;1.43;85.75
77496;SHT31;66600;48.378;9.948;2023-03-03T03:14:02;1.48;85.72
77496;SHT31;66600;48.378;9.948;2023-03-03T03:16:27;1.48;85.59
77496;SHT31;66600;48.378;9.948;2023-03-03T03:18:53;1.46;85.36
77496;SHT31;66600;48.378;9.948;2023-03-03T03:21:18;1.45;85.53
77496;SHT31;66600;48.378;9.948;2023-03-03T03:23:44;1.46;85.60
77496;SHT31;66600;48.378;9.948;2023-03-03T03:26:10;1.51;85.26
77496;SHT31;66600;48.378;9.948;2023-03-03T03:28:36;1.48;85.37
77496;SHT31;66600;48.378;9.948;2023-03-03T03:31:03;1.55;85.18
77496;SHT31;66600;48.378;9.948;2023-03-03T03:33:28;1.51;85.37
77496;SHT31;66600;48.378;9.948;2023-03-03T03:35:54;1.49;85.44
77496;SHT31;66600;48.378;9.948;2023-03-03T03:38:20;1.53;85.30
77496;SHT31;66600;48.378;9.948;2023-03-03T03:40:46;1.48;85.47
77496;SHT31;66600;48.378;9.948;2023-03-03T03:43:11;1.51;85.30
77496;SHT31;66600;48.378;9.948;2023-03-03T03:45:37;1.46;85.31
77496;SHT31;66600;48.378;9.948;2023-03-03T03:48:02;1.52;85.27
77496;SHT31;66600;48.378;9.948;2023-03-03T03:50:28;1.48;85.44
77496;SHT31;66600;48.378;9.948;2023-03-03T03:52:54;1.43;85.53
77496;SHT31;66600;48.378;9.948;2023-03-03T03:55:19;1.48;85.43
77496;SHT31;66600;48.378;9.948;2023-03-03T03:57:46;1.49;85.58
77496;SHT31;66600;48.378;9.948;2023-03-03T04:00:12;1.51;85.37
77496;SHT31;66600;48.378;9.948;2023-03-03T04:02:37;1.46;85.45
77496;SHT31;66600;48.378;9.948;2023-03-03T04:05:03;1.46;85.81
77496;SHT31;66600;48.378;9.948;2023-03-03T04:07:28;1.52;85.34
77496;SHT31;66600;48.378;9.948;2023-03-03T04:09:54;1.45;85.56
77496;SHT31;66600;48.378;9.948;2023-03-03T04:12:19;1.55;85.47
77496;SHT31;66600;48.378;9.948;2023-03-03T04:14:44;1.60;85.28
77496;SHT31;66600;48.378;9.948;2023-03-03T04:17:30;1.64;84.98
77496;SHT31;66600;48.378;9.948;2023-03-03T04:19:55;1.67;84.31
77496;SHT31;66600;48.378;9.948;2023-03-03T04:22:20;1.55;84.63
77496;SHT31;66600;48.378;9.948;2023-03-03T04:24:46;1.42;85.80
77496;SHT31;66600;48.378;9.948;2023-03-03T04:27:12;1.39;85.92
77496;SHT31;66600;48.378;9.948;2023-03-03T04:29:40;1.45;85.87
77496;SHT31;66600;48.378;9.948;2023-03-03T04:32:05;1.48;85.69
77496;SHT31;66600;48.378;9.948;2023-03-03T04:34:31;1.51;85.38
77496;SHT31;66600;48.378;9.948;2023-03-03T04:36:56;1.52;85.55
77496;SHT31;66600;48.378;9.948;2023-03-03T04:39:21;1.56;85.40
77496;SHT31;66600;48.378;9.948;2023-03-03T04:41:47;1.51;85.30
77496;SHT31;66600;48.378;9.948;2023-03-03T04:44:12;1.49;85.31
77496;SHT31;66600;48.378;9.948;2023-03-03T04:46:37;1.43;85.54
77496;SHT31;66600;48.378;9.948;2023-03-03T04:49:02;1.51;85.91
77496;SHT31;66600;48.378;9.948;2023-03-03T04:51:28;1.48;85.71
77496;SHT31;66600;48.378;9.948;2023-03-03T04:53:53;1.43;85.55
77496;SHT31;66600;48.378;9.948;2023-03-03T04:56:19;1.46;85.58
77496;SHT31;66600;48.378;9.948;2023-03-03T04:58:44;1.49;85.51
77496;SHT31;66600;48.378;9.948;2023-03-03T05:01:13;1.56;85.11
77496;SHT31;66600;48.378;9.948;2023-03-03T05:03:39;1.52;85.08
77496;SHT31;66600;48.378;9.948;2023-03-03T05:06:05;1.51;85.28
77496;SHT31;66600;48.378;9.948;2023-03-03T05:08:30;1.51;85.41
77496;SHT31;66600;48.378;9.948;2023-03-03T05:10:56;1.45;85.43
77496;SHT31;66600;48.378;9.948;2023-03-03T05:13:24;1.48;85.34
77496;SHT31;66600;48.378;9.948;2023-03-03T05:15:51;1.32;85.85
77496;SHT31;66600;48.378;9.948;2023-03-03T05:18:23;1.42;85.52
77496;SHT31;66600;48.378;9.948;2023-03-03T05:20:50;1.41;85.56
77496;SHT31;66600;48.378;9.948;2023-03-03T05:23:16;1.48;85.47
77496;SHT31;66600;48.378;9.948;2023-03-03T05:25:41;1.56;84.95
77496;SHT31;66600;48.378;9.948;2023-03-03T05:28:08;1.51;85.00
77496;SHT31;66600;48.378;9.948;2023-03-03T05:30:35;1.55;84.91
77496;SHT31;66600;48.378;9.948;2023-03-03T05:33:00;1.53;85.07
77496;SHT31;66600;48.378;9.948;2023-03-03T05:35:26;1.52;85.09
77496;SHT31;66600;48.378;9.948;2023-03-03T05:37:51;1.52;85.13
77496;SHT31;66600;48.378;9.948;2023-03-03T05:40:17;1.49;85.45
77496;SHT31;66600;48.378;9.948;2023-03-03T05:42:43;1.52;85.22
77496;SHT31;66600;48.378;9.948;2023-03-03T05:45:09;1.58;84.89
77496;SHT31;66600;48.378;9.948;2023-03-03T05:47:34;1.58;85.11
77496;SHT31;66600;48.378;9.948;2023-03-03T05:49:59;1.58;85.10
77496;SHT31;66600;48.378;9.948;2023-03-03T05:52:25;1.53;85.15
77496;SHT31;66600;48.378;9.948;2023-03-03T05:54:50;1.55;85.02
77496;SHT31;66600;48.378;9.948;2023-03-03T05:57:15;1.60;85.13
77496;SHT31;66600;48.378;9.948;2023-03-03T05:59:41;1.62;85.08
77496;SHT31;66600;48.378;9.948;2023-03-03T06:02:06;1.60;85.02
77496;SHT31;66600;48.378;9.948;2023-03-03T06:04:32;1.58;84.88
77496;SHT31;66600;48.378;9.948;2023-03-03T06:06:57;1.66;84.57
77496;SHT31;66600;48.378;9.948;2023-03-03T06:09:22;1.69;84.54
77496;SHT31;66600;48.378;9.948;2023-03-03T06:11:47;1.69;84.41
77496;SHT31;66600;48.378;9.948;2023-03-03T06:14:13;1.64;84.63
77496;SHT31;66600;48.378;9.948;2023-03-03T06:16:38;1.66;84.95
77496;SHT31;66600;48.378;9.948;2023-03-03T06:19:04;1.64;85.00
77496;SHT31;66600;48.378;9.948;2023-03-03T06:21:29;1.76;84.46
77496;SHT31;66600;48.378;9.948;2023-03-03T06:23:54;1.74;84.57
77496;SHT31;66600;48.378;9.948;2023-03-03T06:26:20;1.70;84.77
77496;SHT31;66600;48.378;9.948;2023-03-03T06:28:45;1.72;84.56
77496;SHT31;66600;48.378;9.948;2023-03-03T06:31:10;1.79;84.45
77496;SHT31;66600;48.378;9.948;2023-03-03T06:33:36;1.76;84.50
77496;SHT31;66600;48.378;9.948;2023-03-03T06:36:02;1.77;84.66
77496;SHT31;66600;48.378;9.948;2023-03-03T06:38:28;1.76;84.97
77496;SHT31;66600;48.378;9.948;2023-03-03T06:40:53;1.84;84.45
77496;SHT31;66600;48.378;9.948;2023-03-03T06:43:18;1.89;84.04
77496;SHT31;66600;48.378;9.948;2023-03-03T06:45:44;1.89;84.07
77496;SHT31;66600;48.378;9.948;2023-03-03T06:48:10;1.86;84.56
77496;SHT31;66600;48.378;9.948;2023-03-03T06:50:35;1.99;84.19
77496;SHT31;66600;48.378;9.948;2023-03-03T06:53:10;2.00;83.90
77496;SHT31;66600;48.378;9.948;2023-03-03T06:55:36;2.01;83.50
77496;SHT31;66600;48.378;9.948;2023-03-03T06:58:07;1.96;83.61
77496;SHT31;66600;48.378;9.948;2023-03-03T07:00:33;1.89;84.18
77496;SHT31;66600;48.378;9.948;2023-03-03T07:03:07;1.83;84.54
77496;SHT31;66600;48.378;9.948;2023-03-03T07:05:36;1.87;84.34
77496;SHT31;66600;48.378;9.948;2023-03-03T07:08:05;1.93;84.22
77496;SHT31;66600;48.378;9.948;2023-03-03T07:10:30;1.91;84.23
77496;SHT31;66600;48.378;9.948;2023-03-03T07:13:12;1.96;84.16
77496;SHT31;66600;48.378;9.948;2023-03-03T07:15:40;1.99;83.91
77496;SHT31;66600;48.378;9.948;2023-03-03T07:18:36;2.01;83.32
77496;SHT31;66600;48.378;9.948;2023-03-03T07:21:10;1.97;83.71
77496;SHT31;66600;48.378;9.948;2023-03-03T07:23:38;2.01;83.95
77496;SHT31;66600;48.378;9.948;2023-03-03T07:26:10;2.06;83.60
77496;SHT31;66600;48.378;9.948;2023-03-03T07:28:40;2.01;83.62
77496;SHT31;66600;48.378;9.948;2023-03-03T07:31:14;2.17;83.24
77496;SHT31;66600;48.378;9.948;2023-03-03T07:33:43;2.17;83.19
77496;SHT31;66600;48.378;9.948;2023-03-03T07:36:26;2.24;82.88
77496;SHT31;66600;48.378;9.948;2023-03-03T07:39:00;2.27;82.97
77496;SHT31;66600;48.378;9.948;2023-03-03T07:41:28;2.25;82.74
77496;SHT31;66600;48.378;9.948;2023-03-03T07:44:02;2.38;81.88
77496;SHT31;66600;48.378;9.948;2023-03-03T07:46:46;2.28;82.08
77496;SHT31;66600;48.378;9.948;2023-03-03T07:51:44;2.32;82.50
77496;SHT31;66600;48.378;9.948;2023-03-03T07:56:38;2.39;82.09
77496;SHT31;66600;48.378;9.948;2023-03-03T07:59:20;2.50;81.39
77496;SHT31;66600;48.378;9.948;2023-03-03T08:01:53;2.48;81.51
77496;SHT31;66600;48.378;9.948;2023-03-03T08:04:28;2.37;82.23
77496;SHT31;66600;48.378;9.948;2023-03-03T08:06:58;2.32;82.71
77496;SHT31;66600;48.378;9.948;2023-03-03T08:09:40;2.37;82.46
77496;SHT31;66600;48.378;9.948;2023-03-03T08:14:37;2.35;82.93
77496;SHT31;66600;48.378;9.948;2023-03-03T08:17:34;2.52;82.18
77496;SHT31;66600;48.378;9.948;2023-03-03T08:20:01;2.46;82.13
77496;SHT31;66600;48.378;9.948;2023-03-03T08:22:34;2.53;82.11
77496;SHT31;66600;48.378;9.948;2023-03-03T08:25:03;2.69;82.04
77496;SHT31;66600;48.378;9.948;2023-03-03T08:27:28;2.82;81.27
77496;SHT31;66600;48.378;9.948;2023-03-03T08:29:53;2.79;81.55
77496;SHT31;66600;48.378;9.948;2023-03-03T08:32:18;2.84;81.14
77496;SHT31;66600;48.378;9.948;2023-03-03T08:34:44;3.03;80.55
77496;SHT31;66600;48.378;9.948;2023-03-03T08:37:09;3.15;80.67
77496;SHT31;66600;48.378;9.948;2023-03-03T08:39:35;3.25;79.97
77496;SHT31;66600;48.378;9.948;2023-03-03T08:42:00;3.38;79.69
77496;SHT31;66600;48.378;9.948;2023-03-03T08:44:25;3.62;79.03
77496;SHT31;66600;48.378;9.948;2023-03-03T08:46:51;3.76;78.04
77496;SHT31;66600;48.378;9.948;2023-03-03T08:49:16;4.00;78.13
77496;SHT31;66600;48.378;9.948;2023-03-03T08:51:41;3.83;78.42
77496;SHT31;66600;48.378;9.948;2023-03-03T08:54:07;3.86;77.25
77496;SHT31;66600;48.378;9.948;2023-03-03T08:56:33;3.91;77.21
77496;SHT31;66600;48.378;9.948;2023-03-03T08:58:58;4.01;76.98
77496;SHT31;66600;48.378;9.948;2023-03-03T09:01:23;4.16;76.30
77496;SHT31;66600;48.378;9.948;2023-03-03T09:03:49;4.21;76.03
77496;SHT31;66600;48.378;9.948;2023-03-03T09:06:14;4.20;75.68
77496;SHT31;66600;48.378;9.948;2023-03-03T09:08:39;4.21;75.53
77496;SHT31;66600;48.378;9.948;2023-03-03T09:11:11;4.08;76.05
77496;SHT31;66600;48.378;9.948;2023-03-03T09:13:37;4.07;76.29
77496;SHT31;66600;48.378;9.948;2023-03-03T09:16:10;4.00;76.43
77496;SHT31;66600;48.378;9.948;2023-03-03T09:18:37;4.16;76.08
77496;SHT31;66600;48.378;9.948;2023-03-03T09:23:42;4.41;75.49
77496;SHT31;66600;48.378;9.948;2023-03-03T09:26:26;4.34;74.86
77496;SHT31;66600;48.378;9.948;2023-03-03T09:31:50;4.18;76.05
77496;SHT31;66600;48.378;9.948;2023-03-03T09:36:46;4.31;75.82
77496;SHT31;66600;48.378;9.948;2023-03-03T09:39:23;4.18;76.44
77496;SHT31;66600;48.378;9.948;2023-03-03T09:44:38;4.80;72.61
77496;SHT31;66600;48.378;9.948;2023-03-03T09:47:13;4.82;73.15
77496;SHT31;66600;48.378;9.948;2023-03-03T09:49:58;4.92;73.36
77496;SHT31;66600;48.378;9.948;2023-03-03T09:55:24;5.03;73.38
77496;SHT31;66600;48.378;9.948;2023-03-03T09:58:13;4.87;73.18
77496;SHT31;66600;48.378;9.948;2023-03-03T10:03:51;5.17;72.05
77496;SHT31;66600;48.378;9.948;2023-03-03T10:06:37;5.24;72.22
77496;SHT31;66600;48.378;9.948;2023-03-03T10:12:59;5.31;71.15
77496;SHT31;66600;48.378;9.948;2023-03-03T10:18:02;5.96;70.13
77496;SHT31;66600;48.378;9.948;2023-03-03T10:21:01;5.86;70.73
77496;SHT31;66600;48.378;9.948;2023-03-03T10:28:56;5.70;69.09
77496;SHT31;66600;48.378;9.948;2023-03-03T10:34:29;5.86;68.54
77496;SHT31;66600;48.378;9.948;2023-03-03T10:40:10;5.69;68.88
77496;SHT31;66600;48.378;9.948;2023-03-03T10:54:17;6.64;66.60
77496;SHT31;66600;48.378;9.948;2023-03-03T10:57:15;6.90;66.61
77496;SHT31;66600;48.378;9.948;2023-03-03T11:00:14;6.61;64.97
77496;SHT31;66600;48.378;9.948;2023-03-03T11:08:42;6.48;65.36
77496;SHT31;66600;48.378;9.948;2023-03-03T11:13:50;6.97;64.15
77496;SHT31;66600;48.378;9.948;2023-03-03T11:16:35;7.14;64.25
77496;SHT31;66600;48.378;9.948;2023-03-03T11:19:20;7.38;63.24
77496;SHT31;66600;48.378;9.948;2023-03-03T11:27:28;6.72;62.12
77496;SHT31;66600;48.378;9.948;2023-03-03T11:32:42;6.71;63.10
77496;SHT31;66600;48.378;9.948;2023-03-03T11:38:12;7.20;62.54
77496;SHT31;66600;48.378;9.948;2023-03-03T11:40:56;7.19;61.90
77496;SHT31;66600;48.378;9.948;2023-03-03T11:43:31;7.58;61.37
77496;SHT31;66600;48.378;9.948;2023-03-03T11:46:04;7.48;60.94
77496;SHT31;66600;48.378;9.948;2023-03-03T11:51:22;7.93;59.59
77496;SHT31;66600;48.378;9.948;2023-03-03T11:53:58;7.65;60.51
77496;SHT31;66600;48.378;9.948;2023-03-03T11:56:38;7.81;60.71
77496;SHT31;66600;48.378;9.948;2023-03-03T11:59:25;7.97;60.11
77496;SHT31;66600;48.378;9.948;2023-03-03T12:04:43;8.48;60.46
77496;SHT31;66600;48.378;9.948;2023-03-03T12:10:27;7.96;59.74
77496;SHT31;66600;48.378;9.948;2023-03-03T12:15:57;8.14;60.24
77496;SHT31;66600;48.378;9.948;2023-03-03T12:21:19;8.31;62.39
77496;SHT31;66600;48.378;9.948;2023-03-03T12:24:02;8.44;60.18
77496;SHT31;66600;48.378;9.948;2023-03-03T12:26:39;8.58;59.22
77496;SHT31;66600;48.378;9.948;2023-03-03T12:29:29;8.51;59.34
77496;SHT31;66600;48.378;9.948;2023-03-03T12:33:20;8.76;57.72
77496;SHT31;66600;48.378;9.948;2023-03-03T12:38:03;8.75;59.18
77496;SHT31;66600;48.378;9.948;2023-03-03T12:40:33;8.69;58.43
77496;SHT31;66600;48.378;9.948;2023-03-03T12:43:16;8.71;59.22
77496;SHT31;66600;48.378;9.948;2023-03-03T12:46:02;9.06;58.22
77496;SHT31;66600;48.378;9.948;2023-03-03T12:48:41;8.99;57.96
77496;SHT31;66600;48.378;9.948;2023-03-03T12:51:28;8.41;58.35
77496;SHT31;66600;48.378;9.948;2023-03-03T12:56:59;7.92;60.12
77496;SHT31;66600;48.378;9.948;2023-03-03T12:59:41;8.47;58.51
77496;SHT31;66600;48.378;9.948;2023-03-03T13:02:33;8.78;58.03
77496;SHT31;66600;48.378;9.948;2023-03-03T13:05:18;8.95;57.87
77496;SHT31;66600;48.378;9.948;2023-03-03T13:10:55;8.02;61.24
77496;SHT31;66600;48.378;9.948;2023-03-03T13:16:14;8.03;59.59
77496;SHT31;66600;48.378;9.948;2023-03-03T13:18:56;8.13;59.82
77496;SHT31;66600;48.378;9.948;2023-03-03T13:21:43;8.14;59.17
77496;SHT31;66600;48.378;9.948;2023-03-03T13:24:25;8.04;59.25
77496;SHT31;66600;48.378;9.948;2023-03-03T13:27:15;8.67;59.18
77496;SHT31;66600;48.378;9.948;2023-03-03T13:29:53;8.92;57.20
77496;SHT31;66600;48.378;9.948;2023-03-03T13:32:22;8.83;57.37
77496;SHT31;66600;48.378;9.948;2023-03-03T13:34:57;8.76;58.09
77496;SHT31;66600;48.378;9.948;2023-03-03T13:37:41;8.83;57.16
77496;SHT31;66600;48.378;9.948;2023-03-03T13:42:40;8.51;58.65
77496;SHT31;66600;48.378;9.948;2023-03-03T13:45:18;8.36;59.89
77496;SHT31;66600;48.378;9.948;2023-03-03T13:47:48;8.04;60.14
77496;SHT31;66600;48.378;9.948;2023-03-03T13:55:43;8.44;59.24
77496;SHT31;66600;48.378;9.948;2023-03-03T14:01:13;8.51;60.00
77496;SHT31;66600;48.378;9.948;2023-03-03T14:04:03;8.67;58.63
77496;SHT31;66600;48.378;9.948;2023-03-03T14:06:30;8.69;59.46
77496;SHT31;66600;48.378;9.948;2023-03-03T14:11:53;9.19;56.72
77496;SHT31;66600;48.378;9.948;2023-03-03T14:14:46;9.36;56.03
77496;SHT31;66600;48.378;9.948;2023-03-03T14:18:01;8.88;57.65
77496;SHT31;66600;48.378;9.948;2023-03-03T14:20:28;8.90;56.43
77496;SHT31;66600;48.378;9.948;2023-03-03T14:22:58;9.36;56.21
77496;SHT31;66600;48.378;9.948;2023-03-03T14:25:23;8.90;57.18
77496;SHT31;66600;48.378;9.948;2023-03-03T14:30:25;8.79;58.21
77496;SHT31;66600;48.378;9.948;2023-03-03T14:35:37;8.64;58.40
77496;SHT31;66600;48.378;9.948;2023-03-03T14:38:40;8.60;58.78
77496;SHT31;66600;48.378;9.948;2023-03-03T14:41:12;8.88;58.34
77496;SHT31;66600;48.378;9.948;2023-03-03T14:43:39;9.62;56.85
77496;SHT31;66600;48.378;9.948;2023-03-03T14:46:30;10.23;53.92
77496;SHT31;66600;48.378;9.948;2023-03-03T14:48:58;10.39;53.72
77496;SHT31;66600;48.378;9.948;2023-03-03T14:51:27;10.78;51.86
77496;SHT31;66600;48.378;9.948;2023-03-03T14:53:56;11.09;50.92
77496;SHT31;66600;48.378;9.948;2023-03-03T14:56:32;10.47;52.13
77496;SHT31;66600;48.378;9.948;2023-03-03T14:59:16;9.72;54.35
77496;SHT31;66600;48.378;9.948;2023-03-03T15:01:43;10.02;54.15
77496;SHT31;66600;48.378;9.948;2023-03-03T15:06:45;10.71;51.95
77496;SHT31;66600;48.378;9.948;2023-03-03T15:09:33;11.25;51.02
77496;SHT31;66600;48.378;9.948;2023-03-03T15:12:28;11.52;49.49
77496;SHT31;66600;48.378;9.948;2023-03-03T15:15:17;11.69;49.23
77496;SHT31;66600;48.378;9.948;2023-03-03T15:18:00;11.98;48.90
77496;SHT31;66600;48.378;9.948;2023-03-03T15:23:07;12.22;48.38
77496;SHT31;66600;48.378;9.948;2023-03-03T15:25:51;12.55;46.62
77496;SHT31;66600;48.378;9.948;2023-03-03T15:31:02;12.25;47.65
77496;SHT31;66600;48.378;9.948;2023-03-03T15:33:39;12.28;47.85
77496;SHT31;66600;48.378;9.948;2023-03-03T15:38:53;11.74;48.68
77496;SHT31;66600;48.378;9.948;2023-03-03T15:44:14;12.05;48.35
77496;SHT31;66600;48.378;9.948;2023-03-03T15:54:51;12.01;48.46
77496;SHT31;66600;48.378;9.948;2023-03-03T16:03:13;11.29;49.62
77496;SHT31;66600;48.378;9.948;2023-03-03T16:06:34;11.16;50.18
77496;SHT31;66600;48.378;9.948;2023-03-03T16:09:23;11.25;50.35
77496;SHT31;66600;48.378;9.948;2023-03-03T16:17:16;11.06;51.00
77496;SHT31;66600;48.378;9.948;2023-03-03T16:22:48;10.91;50.93
77496;SHT31;66600;48.378;9.948;2023-03-03T16:27:58;10.36;52.17
77496;SHT31;66600;48.378;9.948;2023-03-03T16:33:23;9.61;53.63
77496;SHT31;66600;48.378;9.948;2023-03-03T16:38:28;8.98;56.29
77496;SHT31;66600;48.378;9.948;2023-03-03T16:40:56;8.67;57.90
77496;SHT31;66600;48.378;9.948;2023-03-03T16:46:32;7.41;61.10
77496;SHT31;66600;48.378;9.948;2023-03-03T16:51:45;6.37;65.53
77496;SHT31;66600;48.378;9.948;2023-03-03T16:54:33;6.17;66.20
77496;SHT31;66600;48.378;9.948;2023-03-03T17:05:38;5.45;68.29
77496;SHT31;66600;48.378;9.948;2023-03-03T17:13:44;4.93;69.83
77496;SHT31;66600;48.378;9.948;2023-03-03T17:16:29;4.86;70.11
77496;SHT31;66600;48.378;9.948;2023-03-03T17:24:35;4.61;71.02
77496;SHT31;66600;48.378;9.948;2023-03-03T17:27:13;4.55;71.32
77496;SHT31;66600;48.378;9.948;2023-03-03T17:29:52;4.37;71.44
77496;SHT31;66600;48.378;9.948;2023-03-03T17:32:52;4.25;72.12
77496;SHT31;66600;48.378;9.948;2023-03-03T17:38:09;4.06;72.75
77496;SHT31;66600;48.378;9.948;2023-03-03T17:41:02;3.90;72.87
77496;SHT31;66600;48.378;9.948;2023-03-03T17:46:32;3.63;73.68
77496;SHT31;66600;48.378;9.948;2023-03-03T17:49:23;3.55;73.89
77496;SHT31;66600;48.378;9.948;2023-03-03T17:52:04;3.43;74.32
77496;SHT31;66600;48.378;9.948;2023-03-03T17:58:21;3.24;74.62
77496;SHT31;66600;48.378;9.948;2023-03-03T18:01:36;3.27;74.75
77496;SHT31;66600;48.378;9.948;2023-03-03T18:04:37;3.21;74.28
77496;SHT31;66600;48.378;9.948;2023-03-03T18:07:28;3.15;74.44
77496;SHT31;66600;48.378;9.948;2023-03-03T18:12:46;3.13;74.65
77496;SHT31;66600;48.378;9.948;2023-03-03T18:15:26;3.11;74.41
77496;SHT31;66600;48.378;9.948;2023-03-03T18:18:14;3.11;74.50
77496;SHT31;66600;48.378;9.948;2023-03-03T18:20:49;3.08;74.23
77496;SHT31;66600;48.378;9.948;2023-03-03T18:23:39;3.07;74.57
77496;SHT31;66600;48.378;9.948;2023-03-03T18:26:34;3.15;73.70
77496;SHT31;66600;48.378;9.948;2023-03-03T18:36:54;3.56;72.09
77496;SHT31;66600;48.378;9.948;2023-03-03T18:39:39;3.65;71.78
77496;SHT31;66600;48.378;9.948;2023-03-03T18:44:39;3.68;71.39
77496;SHT31;66600;48.378;9.948;2023-03-03T18:47:05;3.73;71.06
77496;SHT31;66600;48.378;9.948;2023-03-03T18:49:47;3.69;71.12
77496;SHT31;66600;48.378;9.948;2023-03-03T18:52:17;3.72;70.95
77496;SHT31;66600;48.378;9.948;2023-03-03T18:55:04;3.68;71.22
77496;SHT31;66600;48.378;9.948;2023-03-03T19:00:46;3.65;71.19
77496;SHT31;66600;48.378;9.948;2023-03-03T19:03:31;3.63;71.16
77496;SHT31;66600;48.378;9.948;2023-03-03T19:05:57;3.63;70.94
77496;SHT31;66600;48.378;9.948;2023-03-03T19:08:26;3.55;71.37
77496;SHT31;66600;48.378;9.948;2023-03-03T19:10:54;3.41;71.82
77496;SHT31;66600;48.378;9.948;2023-03-03T19:13:40;3.39;71.95
77496;SHT31;66600;48.378;9.948;2023-03-03T19:16:09;3.24;72.26
77496;SHT31;66600;48.378;9.948;2023-03-03T19:18:59;3.20;72.61
77496;SHT31;66600;48.378;9.948;2023-03-03T19:21:34;3.21;72.42
77496;SHT31;66600;48.378;9.948;2023-03-03T19:24:02;3.20;72.43
77496;SHT31;66600;48.378;9.948;2023-03-03T19:26:42;3.14;72.67
77496;SHT31;66600;48.378;9.948;2023-03-03T19:37:49;2.92;73.49
77496;SHT31;66600;48.378;9.948;2023-03-03T19:40:21;2.90;73.57
77496;SHT31;66600;48.378;9.948;2023-03-03T19:45:44;3.00;73.16
77496;SHT31;66600;48.378;9.948;2023-03-03T19:48:53;2.97;73.12
77496;SHT31;66600;48.378;9.948;2023-03-03T19:51:33;3.11;73.05
77496;SHT31;66600;48.378;9.948;2023-03-03T19:54:16;3.04;73.03
77496;SHT31;66600;48.378;9.948;2023-03-03T19:56:48;3.03;73.08
77496;SHT31;66600;48.378;9.948;2023-03-03T19:59:17;3.05;73.06
77496;SHT31;66600;48.378;9.948;2023-03-03T20:04:39;2.97;73.28
77496;SHT31;66600;48.378;9.948;2023-03-03T20:10:05;2.90;73.69
77496;SHT31;66600;48.378;9.948;2023-03-03T20:15:13;3.01;73.30